sensor_id;sensor_type;location;lat;lon;timestamp;temperature;humidity
11944;DHT22;6031;50.220;10.122;2023-05-10T00:02:12;15.20;17.10
11944;DHT22;6031;50.220;10.122;2023-05-10T00:04:38;15.10;17.80
11944;DHT22;6031;50.220;10.122;2023-05-10T00:07:03;15.10;80.90
11944;DHT22;6031;50.220;10.122;2023-05-10T00:09:29;15.10;98.30
11944;DHT22;6031;50.220;10.122;2023-05-10T00:11:54;15.10;99.90
11944;DHT22;6031;50.220;10.122;2023-05-10T00:14:20;15.10;99.90
11944;DHT22;6031;50.220;10.122;2023-05-10T00:16:45;15.10;99.90
11944;DHT22;6031;50.220;10.122;2023-05-10T00:19:11;15.10;99.90
11944;DHT22;6031;50.220;10.122;2023-05-10T00:21:36;15.10;99.90
11944;DHT22;6031;50.220;10.122;2023-05-10T00:24:02;15.10;99.90
11944;DHT22;6031;50.220;10.122;2023-05-10T00:26:28;15.10;99.90
11944;DHT22;6031;50.220;10.122;2023-05-10T00:28:53;15.10;79.30
11944;DHT22;6031;50.220;10.122;2023-05-10T00:31:19;15.10;99.90
11944;DHT22;6031;50.220;10.122;2023-05-10T00:33:44;15.10;99.90
11944;DHT22;6031;50.220;10.122;2023-05-10T00:36:11;15.00;99.90
11944;DHT22;6031;50.220;10.122;2023-05-10T00:38:36;15.00;99.90
11944;DHT22;6031;50.220;10.122;2023-05-10T00:41:02;15.00;99.90
11944;DHT22;6031;50.220;10.122;2023-05-10T00:43:28;14.90;99.90
11944;DHT22;6031;50.220;10.122;2023-05-10T00:45:54;15.00;99.90
11944;DHT22;6031;50.220;10.122;2023-05-10T00:48:19;14.90;99.90
11944;DHT22;6031;50.220;10.122;2023-05-10T00:50:45;14.80;99.90
11944;DHT22;6031;50.220;10.122;2023-05-10T00:53:11;14.80;99.90
11944;DHT22;6031;50.220;10.122;2023-05-10T00:55:37;14.80;99.90
11944;DHT22;6031;50.220;10.122;2023-05-10T00:58:03;14.80;99.90
11944;DHT22;6031;50.220;10.122;2023-05-10T01:00:29;14.80;99.90
11944;DHT22;6031;50.220;10.122;2023-05-10T01:02:55;14.80;99.90
11944;DHT22;6031;50.220;10.122;2023-05-10T01:05:21;14.80;99.90
11944;DHT22;6031;50.220;10.122;2023-05-10T01:08:24;14.80;99.90
11944;DHT22;6031;50.220;10.122;2023-05-10T01:10:50;14.70;99.90
11944;DHT22;6031;50.220;10.122;2023-05-10T01:13:33;14.60;99.90
11944;DHT22;6031;50.220;10.122;2023-05-10T01:15:59;14.50;99.90
11944;DHT22;6031;50.220;10.122;2023-05-10T01:18:27;14.60;99.90
11944;DHT22;6031;50.220;10.122;2023-05-10T01:29:59;14.50;99.90
11944;DHT22;6031;50.220;10.122;2023-05-10T01:35:25;14.30;99.90
11944;DHT22;6031;50.220;10.122;2023-05-10T01:40:42;14.30;99.90
11944;DHT22;6031;50.220;10.122;2023-05-10T01:43:19;14.30;99.90
11944;DHT22;6031;50.220;10.122;2023-05-10T01:46:05;14.30;99.90
11944;DHT22;6031;50.220;10.122;2023-05-10T01:48:40;14.30;99.90
11944;DHT22;6031;50.220;10.122;2023-05-10T01:51:11;14.20;99.90
11944;DHT22;6031;50.220;10.122;2023-05-10T01:53:39;14.20;99.90
11944;DHT22;6031;50.220;10.122;2023-05-10T01:56:06;14.10;99.90
11944;DHT22;6031;50.220;10.122;2023-05-10T01:58:33;14.10;99.90
11944;DHT22;6031;50.220;10.122;2023-05-10T02:01:03;14.00;99.90
11944;DHT22;6031;50.220;10.122;2023-05-10T02:03:31;14.00;99.90
11944;DHT22;6031;50.220;10.122;2023-05-10T02:05:57;13.90;99.90
11944;DHT22;6031;50.220;10.122;2023-05-10T02:08:23;13.90;99.90
11944;DHT22;6031;50.220;10.122;2023-05-10T02:10:54;13.90;99.90
11944;DHT22;6031;50.220;10.122;2023-05-10T02:13:21;13.90;99.90
11944;DHT22;6031;50.220;10.122;2023-05-10T02:15:48;14.00;99.90
11944;DHT22;6031;50.220;10.122;2023-05-10T02:18:14;14.00;99.90
11944;DHT22;6031;50.220;10.122;2023-05-10T02:20:42;14.00;99.90
11944;DHT22;6031;50.220;10.122;2023-05-10T02:23:08;14.00;99.90
11944;DHT22;6031;50.220;10.122;2023-05-10T02:25:36;14.10;99.90
11944;DHT22;6031;50.220;10.122;2023-05-10T02:28:05;14.00;99.90
11944;DHT22;6031;50.220;10.122;2023-05-10T02:30:32;14.10;99.90
11944;DHT22;6031;50.220;10.122;2023-05-10T02:32:59;13.90;99.90
11944;DHT22;6031;50.220;10.122;2023-05-10T02:35:26;13.70;99.90
11944;DHT22;6031;50.220;10.122;2023-05-10T02:37:52;13.60;99.90
11944;DHT22;6031;50.220;10.122;2023-05-10T02:40:19;13.50;99.90
11944;DHT22;6031;50.220;10.122;2023-05-10T02:42:47;13.40;99.90
11944;DHT22;6031;50.220;10.122;2023-05-10T02:45:18;13.30;99.90
11944;DHT22;6031;50.220;10.122;2023-05-10T02:47:44;13.30;99.90
11944;DHT22;6031;50.220;10.122;2023-05-10T02:50:10;13.20;99.90
11944;DHT22;6031;50.220;10.122;2023-05-10T02:52:41;13.20;99.90
11944;DHT22;6031;50.220;10.122;2023-05-10T02:55:09;13.20;99.90
11944;DHT22;6031;50.220;10.122;2023-05-10T02:57:40;13.20;99.90
11944;DHT22;6031;50.220;10.122;2023-05-10T03:00:07;13.20;99.90
11944;DHT22;6031;50.220;10.122;2023-05-10T03:02:33;13.10;99.90
11944;DHT22;6031;50.220;10.122;2023-05-10T03:04:59;13.10;99.90
11944;DHT22;6031;50.220;10.122;2023-05-10T03:07:24;13.10;99.90
11944;DHT22;6031;50.220;10.122;2023-05-10T03:09:50;13.10;99.90
11944;DHT22;6031;50.220;10.122;2023-05-10T03:15:31;13.00;99.90
11944;DHT22;6031;50.220;10.122;2023-05-10T03:18:21;13.00;99.90
11944;DHT22;6031;50.220;10.122;2023-05-10T03:20:49;12.90;99.90
11944;DHT22;6031;50.220;10.122;2023-05-10T03:25:44;12.90;99.90
11944;DHT22;6031;50.220;10.122;2023-05-10T03:28:12;12.80;99.90
11944;DHT22;6031;50.220;10.122;2023-05-10T03:30:39;12.80;99.90
11944;DHT22;6031;50.220;10.122;2023-05-10T03:33:06;12.80;99.90
11944;DHT22;6031;50.220;10.122;2023-05-10T03:35:32;12.80;99.90
11944;DHT22;6031;50.220;10.122;2023-05-10T03:37:57;12.80;99.90
11944;DHT22;6031;50.220;10.122;2023-05-10T03:40:23;12.80;99.90
11944;DHT22;6031;50.220;10.122;2023-05-10T03:42:49;12.90;99.90
11944;DHT22;6031;50.220;10.122;2023-05-10T03:45:14;12.90;99.90
11944;DHT22;6031;50.220;10.122;2023-05-10T03:47:40;12.90;99.90
11944;DHT22;6031;50.220;10.122;2023-05-10T03:50:06;13.00;99.90
11944;DHT22;6031;50.220;10.122;2023-05-10T03:52:32;13.00;99.90
11944;DHT22;6031;50.220;10.122;2023-05-10T03:54:57;13.00;99.90
11944;DHT22;6031;50.220;10.122;2023-05-10T03:57:23;13.00;99.90
11944;DHT22;6031;50.220;10.122;2023-05-10T03:59:49;13.00;99.90
11944;DHT22;6031;50.220;10.122;2023-05-10T04:02:14;13.00;99.90
11944;DHT22;6031;50.220;10.122;2023-05-10T04:04:40;13.00;99.90
11944;DHT22;6031;50.220;10.122;2023-05-10T04:07:05;13.00;99.90
11944;DHT22;6031;50.220;10.122;2023-05-10T04:09:31;13.00;99.90
11944;DHT22;6031;50.220;10.122;2023-05-10T04:11:56;13.10;99.90
11944;DHT22;6031;50.220;10.122;2023-05-10T04:14:23;13.00;99.90
11944;DHT22;6031;50.220;10.122;2023-05-10T04:16:49;13.00;99.90
11944;DHT22;6031;50.220;10.122;2023-05-10T04:19:14;12.90;99.90
11944;DHT22;6031;50.220;10.122;2023-05-10T04:21:40;12.90;99.90
11944;DHT22;6031;50.220;10.122;2023-05-10T04:24:05;12.90;99.90
11944;DHT22;6031;50.220;10.122;2023-05-10T04:26:31;12.90;99.90
11944;DHT22;6031;50.220;10.122;2023-05-10T04:28:56;12.80;99.90
11944;DHT22;6031;50.220;10.122;2023-05-10T04:31:22;12.90;99.90
11944;DHT22;6031;50.220;10.122;2023-05-10T04:33:47;12.90;99.90
11944;DHT22;6031;50.220;10.122;2023-05-10T04:36:13;12.90;99.90
11944;DHT22;6031;50.220;10.122;2023-05-10T04:38:38;12.90;99.90
11944;DHT22;6031;50.220;10.122;2023-05-10T04:41:07;13.00;99.90
11944;DHT22;6031;50.220;10.122;2023-05-10T04:43:33;13.00;99.90
11944;DHT22;6031;50.220;10.122;2023-05-10T04:45:59;13.10;99.90
11944;DHT22;6031;50.220;10.122;2023-05-10T04:48:25;13.10;99.90
11944;DHT22;6031;50.220;10.122;2023-05-10T04:50:50;13.20;99.90
11944;DHT22;6031;50.220;10.122;2023-05-10T04:53:16;13.20;99.90
11944;DHT22;6031;50.220;10.122;2023-05-10T04:55:41;13.20;99.90
11944;DHT22;6031;50.220;10.122;2023-05-10T04:58:07;13.30;99.90
11944;DHT22;6031;50.220;10.122;2023-05-10T05:00:33;13.30;99.90
11944;DHT22;6031;50.220;10.122;2023-05-10T05:02:59;13.30;99.90
11944;DHT22;6031;50.220;10.122;2023-05-10T05:05:24;13.40;99.90
11944;DHT22;6031;50.220;10.122;2023-05-10T05:07:50;13.40;99.90
11944;DHT22;6031;50.220;10.122;2023-05-10T05:10:16;13.40;99.90
11944;DHT22;6031;50.220;10.122;2023-05-10T05:12:41;13.40;99.90
11944;DHT22;6031;50.220;10.122;2023-05-10T05:15:07;13.50;99.90
11944;DHT22;6031;50.220;10.122;2023-05-10T05:17:34;13.50;99.90
11944;DHT22;6031;50.220;10.122;2023-05-10T05:20:00;13.50;99.90
11944;DHT22;6031;50.220;10.122;2023-05-10T05:22:25;13.50;99.90
11944;DHT22;6031;50.220;10.122;2023-05-10T05:24:56;13.50;99.90
11944;DHT22;6031;50.220;10.122;2023-05-10T05:27:23;13.60;99.90
11944;DHT22;6031;50.220;10.122;2023-05-10T05:29:53;13.60;99.90
11944;DHT22;6031;50.220;10.122;2023-05-10T05:32:18;13.70;99.90
11944;DHT22;6031;50.220;10.122;2023-05-10T05:34:45;13.70;70.00
11944;DHT22;6031;50.220;10.122;2023-05-10T05:37:15;13.80;99.90
11944;DHT22;6031;50.220;10.122;2023-05-10T05:39:41;13.80;99.90
11944;DHT22;6031;50.220;10.122;2023-05-10T05:42:08;13.80;83.10
11944;DHT22;6031;50.220;10.122;2023-05-10T05:44:33;14.00;46.30
11944;DHT22;6031;50.220;10.122;2023-05-10T05:46:59;14.10;1.00
11944;DHT22;6031;50.220;10.122;2023-05-10T05:49:24;14.30;1.00
11944;DHT22;6031;50.220;10.122;2023-05-10T05:51:50;14.30;1.00
11944;DHT22;6031;50.220;10.122;2023-05-10T05:54:16;14.30;99.90
11944;DHT22;6031;50.220;10.122;2023-05-10T05:56:41;14.30;1.00
11944;DHT22;6031;50.220;10.122;2023-05-10T05:59:07;14.30;99.90
11944;DHT22;6031;50.220;10.122;2023-05-10T06:01:33;14.30;1.00
11944;DHT22;6031;50.220;10.122;2023-05-10T06:03:58;14.30;13.00
11944;DHT22;6031;50.220;10.122;2023-05-10T06:06:24;14.50;99.90
11944;DHT22;6031;50.220;10.122;2023-05-10T06:08:49;14.70;1.00
11944;DHT22;6031;50.220;10.122;2023-05-10T06:11:15;14.70;99.90
11944;DHT22;6031;50.220;10.122;2023-05-10T06:13:40;14.70;98.60
11944;DHT22;6031;50.220;10.122;2023-05-10T06:16:07;14.70;1.00
11944;DHT22;6031;50.220;10.122;2023-05-10T06:18:32;14.70;1.00
11944;DHT22;6031;50.220;10.122;2023-05-10T06:20:58;14.90;1.00
11944;DHT22;6031;50.220;10.122;2023-05-10T06:23:23;15.00;1.00
11944;DHT22;6031;50.220;10.122;2023-05-10T06:25:51;15.00;99.90
11944;DHT22;6031;50.220;10.122;2023-05-10T06:28:16;15.00;99.90
11944;DHT22;6031;50.220;10.122;2023-05-10T06:30:42;15.20;99.90
11944;DHT22;6031;50.220;10.122;2023-05-10T06:33:07;15.20;99.90
11944;DHT22;6031;50.220;10.122;2023-05-10T06:35:33;15.10;1.00
11944;DHT22;6031;50.220;10.122;2023-05-10T06:37:59;15.40;1.00
11944;DHT22;6031;50.220;10.122;2023-05-10T06:40:24;15.60;99.90
11944;DHT22;6031;50.220;10.122;2023-05-10T06:42:50;15.90;99.90
11944;DHT22;6031;50.220;10.122;2023-05-10T06:45:16;16.10;1.00
11944;DHT22;6031;50.220;10.122;2023-05-10T06:47:41;15.90;1.00
11944;DHT22;6031;50.220;10.122;2023-05-10T06:50:08;15.90;99.90
11944;DHT22;6031;50.220;10.122;2023-05-10T06:52:34;15.70;99.90
11944;DHT22;6031;50.220;10.122;2023-05-10T06:54:59;15.80;28.80
11944;DHT22;6031;50.220;10.122;2023-05-10T06:57:25;15.90;99.90
11944;DHT22;6031;50.220;10.122;2023-05-10T06:59:51;16.20;99.90
11944;DHT22;6031;50.220;10.122;2023-05-10T07:02:17;16.50;99.90
11944;DHT22;6031;50.220;10.122;2023-05-10T07:04:43;16.60;1.00
11944;DHT22;6031;50.220;10.122;2023-05-10T07:07:08;16.90;1.00
11944;DHT22;6031;50.220;10.122;2023-05-10T07:09:34;17.30;1.00
11944;DHT22;6031;50.220;10.122;2023-05-10T07:11:59;17.20;1.00
11944;DHT22;6031;50.220;10.122;2023-05-10T07:14:27;17.20;99.90
11944;DHT22;6031;50.220;10.122;2023-05-10T07:16:52;17.20;35.70
11944;DHT22;6031;50.220;10.122;2023-05-10T07:19:18;17.10;99.90
11944;DHT22;6031;50.220;10.122;2023-05-10T07:21:44;17.20;1.00
11944;DHT22;6031;50.220;10.122;2023-05-10T07:24:10;17.10;1.00
11944;DHT22;6031;50.220;10.122;2023-05-10T07:26:35;17.00;1.00
11944;DHT22;6031;50.220;10.122;2023-05-10T07:29:01;16.70;1.00
11944;DHT22;6031;50.220;10.122;2023-05-10T07:31:26;16.60;1.00
11944;DHT22;6031;50.220;10.122;2023-05-10T07:33:52;16.80;1.00
11944;DHT22;6031;50.220;10.122;2023-05-10T07:36:17;16.60;47.20
11944;DHT22;6031;50.220;10.122;2023-05-10T07:38:43;16.40;99.90
11944;DHT22;6031;50.220;10.122;2023-05-10T07:41:09;16.20;1.00
11944;DHT22;6031;50.220;10.122;2023-05-10T07:43:35;16.20;1.00
11944;DHT22;6031;50.220;10.122;2023-05-10T07:46:00;16.00;1.00
11944;DHT22;6031;50.220;10.122;2023-05-10T07:48:26;15.60;99.90
11944;DHT22;6031;50.220;10.122;2023-05-10T07:50:51;15.60;99.90
11944;DHT22;6031;50.220;10.122;2023-05-10T07:53:17;15.80;99.90
11944;DHT22;6031;50.220;10.122;2023-05-10T07:55:44;15.90;99.90
11944;DHT22;6031;50.220;10.122;2023-05-10T07:58:10;16.10;99.90
11944;DHT22;6031;50.220;10.122;2023-05-10T08:00:35;16.10;37.10
11944;DHT22;6031;50.220;10.122;2023-05-10T08:03:04;16.00;5.40
11944;DHT22;6031;50.220;10.122;2023-05-10T08:05:29;15.90;1.00
11944;DHT22;6031;50.220;10.122;2023-05-10T08:07:55;16.00;99.90
11944;DHT22;6031;50.220;10.122;2023-05-10T08:10:21;16.10;93.20
11944;DHT22;6031;50.220;10.122;2023-05-10T08:12:46;16.30;1.00
11944;DHT22;6031;50.220;10.122;2023-05-10T08:15:11;16.20;1.00
11944;DHT22;6031;50.220;10.122;2023-05-10T08:17:37;16.00;26.30
11944;DHT22;6031;50.220;10.122;2023-05-10T08:20:03;15.80;6.60
11944;DHT22;6031;50.220;10.122;2023-05-10T08:22:28;15.60;99.90
11944;DHT22;6031;50.220;10.122;2023-05-10T08:24:54;15.60;1.00
11944;DHT22;6031;50.220;10.122;2023-05-10T08:27:19;15.50;1.00
11944;DHT22;6031;50.220;10.122;2023-05-10T08:29:45;15.40;1.00
11944;DHT22;6031;50.220;10.122;2023-05-10T08:32:10;15.40;1.00
11944;DHT22;6031;50.220;10.122;2023-05-10T08:34:36;15.30;1.00
11944;DHT22;6031;50.220;10.122;2023-05-10T08:37:01;15.30;1.00
11944;DHT22;6031;50.220;10.122;2023-05-10T08:39:27;15.30;99.90
11944;DHT22;6031;50.220;10.122;2023-05-10T08:41:53;15.50;1.00
11944;DHT22;6031;50.220;10.122;2023-05-10T08:44:19;15.70;99.90
11944;DHT22;6031;50.220;10.122;2023-05-10T08:46:46;15.90;1.00
11944;DHT22;6031;50.220;10.122;2023-05-10T08:49:17;16.20;1.00
11944;DHT22;6031;50.220;10.122;2023-05-10T08:51:52;16.40;1.00
11944;DHT22;6031;50.220;10.122;2023-05-10T08:54:21;16.50;99.90
11944;DHT22;6031;50.220;10.122;2023-05-10T08:56:47;16.40;1.00
11944;DHT22;6031;50.220;10.122;2023-05-10T08:59:12;16.20;99.90
11944;DHT22;6031;50.220;10.122;2023-05-10T09:01:40;16.10;1.00
11944;DHT22;6031;50.220;10.122;2023-05-10T09:04:06;16.60;1.00
11944;DHT22;6031;50.220;10.122;2023-05-10T09:06:33;16.60;99.90
11944;DHT22;6031;50.220;10.122;2023-05-10T09:08:59;16.80;99.90
11944;DHT22;6031;50.220;10.122;2023-05-10T09:11:25;17.10;1.00
11944;DHT22;6031;50.220;10.122;2023-05-10T09:13:52;17.70;99.90
11944;DHT22;6031;50.220;10.122;2023-05-10T09:16:18;17.70;99.90
11944;DHT22;6031;50.220;10.122;2023-05-10T09:18:43;17.80;99.90
11944;DHT22;6031;50.220;10.122;2023-05-10T09:21:09;17.80;1.00
11944;DHT22;6031;50.220;10.122;2023-05-10T09:23:35;17.40;25.00
11944;DHT22;6031;50.220;10.122;2023-05-10T09:26:05;16.90;86.00
11944;DHT22;6031;50.220;10.122;2023-05-10T09:28:34;16.70;1.00
11944;DHT22;6031;50.220;10.122;2023-05-10T09:31:00;16.00;95.90
11944;DHT22;6031;50.220;10.122;2023-05-10T09:33:25;15.90;1.00
11944;DHT22;6031;50.220;10.122;2023-05-10T09:35:52;16.10;99.90
11944;DHT22;6031;50.220;10.122;2023-05-10T09:38:17;16.70;99.90
11944;DHT22;6031;50.220;10.122;2023-05-10T09:40:53;17.30;1.00
11944;DHT22;6031;50.220;10.122;2023-05-10T09:43:20;17.30;1.00
11944;DHT22;6031;50.220;10.122;2023-05-10T09:45:48;17.50;99.90
11944;DHT22;6031;50.220;10.122;2023-05-10T09:48:14;18.10;94.20
11944;DHT22;6031;50.220;10.122;2023-05-10T09:50:39;18.60;99.90
11944;DHT22;6031;50.220;10.122;2023-05-10T09:53:05;19.00;1.00
11944;DHT22;6031;50.220;10.122;2023-05-10T09:55:43;19.10;1.00
11944;DHT22;6031;50.220;10.122;2023-05-10T09:58:12;19.20;1.00
11944;DHT22;6031;50.220;10.122;2023-05-10T10:00:40;19.70;34.00
11944;DHT22;6031;50.220;10.122;2023-05-10T10:03:06;19.90;99.90
11944;DHT22;6031;50.220;10.122;2023-05-10T10:05:33;19.70;99.90
11944;DHT22;6031;50.220;10.122;2023-05-10T10:08:00;19.90;99.90
11944;DHT22;6031;50.220;10.122;2023-05-10T10:10:26;19.70;99.90
11944;DHT22;6031;50.220;10.122;2023-05-10T10:12:52;19.30;1.00
11944;DHT22;6031;50.220;10.122;2023-05-10T10:15:19;18.80;1.00
11944;DHT22;6031;50.220;10.122;2023-05-10T10:17:45;18.40;1.00
11944;DHT22;6031;50.220;10.122;2023-05-10T10:20:11;18.10;1.00
11944;DHT22;6031;50.220;10.122;2023-05-10T10:22:37;17.70;1.00
11944;DHT22;6031;50.220;10.122;2023-05-10T10:25:04;17.00;1.00
11944;DHT22;6031;50.220;10.122;2023-05-10T10:33:10;16.20;1.00
11944;DHT22;6031;50.220;10.122;2023-05-10T10:35:38;16.20;99.90
11944;DHT22;6031;50.220;10.122;2023-05-10T10:38:08;16.60;1.00
11944;DHT22;6031;50.220;10.122;2023-05-10T10:40:34;17.00;1.00
11944;DHT22;6031;50.220;10.122;2023-05-10T10:43:22;17.40;99.90
11944;DHT22;6031;50.220;10.122;2023-05-10T10:46:15;18.00;1.00
11944;DHT22;6031;50.220;10.122;2023-05-10T10:48:47;18.30;99.90
11944;DHT22;6031;50.220;10.122;2023-05-10T10:51:14;18.60;1.00
11944;DHT22;6031;50.220;10.122;2023-05-10T10:53:40;18.90;99.90
11944;DHT22;6031;50.220;10.122;2023-05-10T10:56:08;19.60;1.00
11944;DHT22;6031;50.220;10.122;2023-05-10T10:58:35;19.60;1.00
11944;DHT22;6031;50.220;10.122;2023-05-10T11:01:14;19.60;1.00
11944;DHT22;6031;50.220;10.122;2023-05-10T11:03:40;19.70;99.90
11944;DHT22;6031;50.220;10.122;2023-05-10T11:06:05;19.30;1.00
11944;DHT22;6031;50.220;10.122;2023-05-10T11:08:32;19.60;99.90
11944;DHT22;6031;50.220;10.122;2023-05-10T11:13:33;20.30;1.00
11944;DHT22;6031;50.220;10.122;2023-05-10T11:16:16;20.50;1.00
11944;DHT22;6031;50.220;10.122;2023-05-10T11:18:59;21.00;99.90
11944;DHT22;6031;50.220;10.122;2023-05-10T11:21:27;22.00;99.90
11944;DHT22;6031;50.220;10.122;2023-05-10T11:23:54;22.40;1.00
11944;DHT22;6031;50.220;10.122;2023-05-10T11:26:24;22.40;16.60
11944;DHT22;6031;50.220;10.122;2023-05-10T11:28:53;21.50;99.90
11944;DHT22;6031;50.220;10.122;2023-05-10T11:31:20;20.60;99.90
11944;DHT22;6031;50.220;10.122;2023-05-10T11:33:51;21.30;99.90
11944;DHT22;6031;50.220;10.122;2023-05-10T11:36:20;21.70;1.00
11944;DHT22;6031;50.220;10.122;2023-05-10T11:38:47;22.80;1.00
11944;DHT22;6031;50.220;10.122;2023-05-10T11:41:14;21.30;1.00
11944;DHT22;6031;50.220;10.122;2023-05-10T11:43:41;20.80;99.90
11944;DHT22;6031;50.220;10.122;2023-05-10T11:46:11;20.70;99.90
11944;DHT22;6031;50.220;10.122;2023-05-10T11:48:41;20.80;99.90
11944;DHT22;6031;50.220;10.122;2023-05-10T11:51:08;20.50;99.90
11944;DHT22;6031;50.220;10.122;2023-05-10T11:53:34;20.20;99.90
11944;DHT22;6031;50.220;10.122;2023-05-10T11:56:04;20.50;99.90
11944;DHT22;6031;50.220;10.122;2023-05-10T11:58:31;21.30;1.00
11944;DHT22;6031;50.220;10.122;2023-05-10T12:00:58;21.30;1.00
11944;DHT22;6031;50.220;10.122;2023-05-10T12:03:24;22.00;1.00
11944;DHT22;6031;50.220;10.122;2023-05-10T12:05:49;23.50;1.00
11944;DHT22;6031;50.220;10.122;2023-05-10T12:08:19;24.40;1.00
11944;DHT22;6031;50.220;10.122;2023-05-10T12:10:45;25.60;1.00
11944;DHT22;6031;50.220;10.122;2023-05-10T12:13:12;26.50;1.00
11944;DHT22;6031;50.220;10.122;2023-05-10T12:15:39;25.80;1.00
11944;DHT22;6031;50.220;10.122;2023-05-10T12:18:04;24.10;1.00
11944;DHT22;6031;50.220;10.122;2023-05-10T12:20:30;23.90;1.00
11944;DHT22;6031;50.220;10.122;2023-05-10T12:22:58;23.40;1.00
11944;DHT22;6031;50.220;10.122;2023-05-10T12:25:29;24.10;1.00
11944;DHT22;6031;50.220;10.122;2023-05-10T12:27:59;25.10;1.00
11944;DHT22;6031;50.220;10.122;2023-05-10T12:30:28;25.30;1.00
11944;DHT22;6031;50.220;10.122;2023-05-10T12:33:00;25.50;1.00
11944;DHT22;6031;50.220;10.122;2023-05-10T12:35:29;24.30;1.00
11944;DHT22;6031;50.220;10.122;2023-05-10T12:37:55;23.00;1.00
11944;DHT22;6031;50.220;10.122;2023-05-10T12:40:20;22.50;1.00
11944;DHT22;6031;50.220;10.122;2023-05-10T12:42:46;22.40;1.00
11944;DHT22;6031;50.220;10.122;2023-05-10T12:45:12;22.20;1.00
11944;DHT22;6031;50.220;10.122;2023-05-10T12:47:38;22.00;1.00
11944;DHT22;6031;50.220;10.122;2023-05-10T12:50:04;21.50;1.00
11944;DHT22;6031;50.220;10.122;2023-05-10T12:52:31;21.50;1.00
11944;DHT22;6031;50.220;10.122;2023-05-10T12:54:58;21.80;1.00
11944;DHT22;6031;50.220;10.122;2023-05-10T12:57:24;21.70;1.00
11944;DHT22;6031;50.220;10.122;2023-05-10T12:59:49;21.20;1.00
11944;DHT22;6031;50.220;10.122;2023-05-10T13:02:15;21.40;1.00
11944;DHT22;6031;50.220;10.122;2023-05-10T13:04:43;21.20;1.00
11944;DHT22;6031;50.220;10.122;2023-05-10T13:07:09;20.80;1.00
11944;DHT22;6031;50.220;10.122;2023-05-10T13:09:35;20.30;1.00
11944;DHT22;6031;50.220;10.122;2023-05-10T13:12:01;20.50;1.00
11944;DHT22;6031;50.220;10.122;2023-05-10T13:14:27;20.40;1.00
11944;DHT22;6031;50.220;10.122;2023-05-10T13:16:52;20.30;1.00
11944;DHT22;6031;50.220;10.122;2023-05-10T13:19:18;19.70;1.00
11944;DHT22;6031;50.220;10.122;2023-05-10T13:21:43;18.40;1.00
11944;DHT22;6031;50.220;10.122;2023-05-10T13:24:12;17.90;99.90
11944;DHT22;6031;50.220;10.122;2023-05-10T13:26:39;17.60;1.00
11944;DHT22;6031;50.220;10.122;2023-05-10T13:29:06;17.20;99.90
11944;DHT22;6031;50.220;10.122;2023-05-10T13:31:31;16.50;1.00
11944;DHT22;6031;50.220;10.122;2023-05-10T13:33:57;16.40;1.50
11944;DHT22;6031;50.220;10.122;2023-05-10T13:36:22;16.20;99.90
11944;DHT22;6031;50.220;10.122;2023-05-10T13:38:48;15.90;99.90
11944;DHT22;6031;50.220;10.122;2023-05-10T13:41:14;15.60;99.90
11944;DHT22;6031;50.220;10.122;2023-05-10T13:43:39;15.50;1.00
11944;DHT22;6031;50.220;10.122;2023-05-10T13:46:05;15.50;1.00
11944;DHT22;6031;50.220;10.122;2023-05-10T13:48:31;15.80;1.00
11944;DHT22;6031;50.220;10.122;2023-05-10T13:50:56;15.80;1.00
11944;DHT22;6031;50.220;10.122;2023-05-10T13:53:22;15.60;1.00
11944;DHT22;6031;50.220;10.122;2023-05-10T13:55:47;15.60;1.00
11944;DHT22;6031;50.220;10.122;2023-05-10T13:58:13;15.70;99.90
11944;DHT22;6031;50.220;10.122;2023-05-10T14:00:38;15.70;1.00
11944;DHT22;6031;50.220;10.122;2023-05-10T14:03:04;15.70;1.00
11944;DHT22;6031;50.220;10.122;2023-05-10T14:05:31;15.80;1.00
11944;DHT22;6031;50.220;10.122;2023-05-10T14:07:57;16.00;99.90
11944;DHT22;6031;50.220;10.122;2023-05-10T14:10:22;16.10;1.00
11944;DHT22;6031;50.220;10.122;2023-05-10T14:12:48;16.30;99.90
11944;DHT22;6031;50.220;10.122;2023-05-10T14:15:13;16.50;1.00
11944;DHT22;6031;50.220;10.122;2023-05-10T14:17:39;16.50;99.90
11944;DHT22;6031;50.220;10.122;2023-05-10T14:20:05;16.80;99.90
11944;DHT22;6031;50.220;10.122;2023-05-10T14:22:31;17.10;1.00
11944;DHT22;6031;50.220;10.122;2023-05-10T14:24:56;17.40;99.90
11944;DHT22;6031;50.220;10.122;2023-05-10T14:27:22;17.60;99.90
11944;DHT22;6031;50.220;10.122;2023-05-10T14:29:48;17.80;99.90
11944;DHT22;6031;50.220;10.122;2023-05-10T14:32:13;17.70;99.90
11944;DHT22;6031;50.220;10.122;2023-05-10T14:34:39;17.60;1.00
11944;DHT22;6031;50.220;10.122;2023-05-10T14:37:04;17.50;1.00
11944;DHT22;6031;50.220;10.122;2023-05-10T14:39:30;17.70;99.90
11944;DHT22;6031;50.220;10.122;2023-05-10T14:41:56;17.80;99.90
11944;DHT22;6031;50.220;10.122;2023-05-10T14:44:21;17.90;99.90
11944;DHT22;6031;50.220;10.122;2023-05-10T14:46:47;17.90;1.00
11944;DHT22;6031;50.220;10.122;2023-05-10T14:49:13;18.00;1.00
11944;DHT22;6031;50.220;10.122;2023-05-10T14:51:39;18.00;1.00
11944;DHT22;6031;50.220;10.122;2023-05-10T14:54:04;18.20;1.00
11944;DHT22;6031;50.220;10.122;2023-05-10T14:56:31;18.20;1.00
11944;DHT22;6031;50.220;10.122;2023-05-10T14:58:57;18.10;49.80
11944;DHT22;6031;50.220;10.122;2023-05-10T15:01:22;18.30;99.90
11944;DHT22;6031;50.220;10.122;2023-05-10T15:03:48;18.20;1.00
11944;DHT22;6031;50.220;10.122;2023-05-10T15:06:15;18.20;1.00
11944;DHT22;6031;50.220;10.122;2023-05-10T15:08:41;18.00;99.90
11944;DHT22;6031;50.220;10.122;2023-05-10T15:11:07;18.30;99.90
11944;DHT22;6031;50.220;10.122;2023-05-10T15:13:32;18.60;1.00
11944;DHT22;6031;50.220;10.122;2023-05-10T15:15:58;18.60;99.90
11944;DHT22;6031;50.220;10.122;2023-05-10T15:18:23;18.50;99.90
11944;DHT22;6031;50.220;10.122;2023-05-10T15:20:49;18.00;1.00
11944;DHT22;6031;50.220;10.122;2023-05-10T15:23:14;17.50;51.60
11944;DHT22;6031;50.220;10.122;2023-05-10T15:25:40;17.60;1.00
11944;DHT22;6031;50.220;10.122;2023-05-10T15:28:05;17.90;99.90
11944;DHT22;6031;50.220;10.122;2023-05-10T15:30:31;17.90;1.00
11944;DHT22;6031;50.220;10.122;2023-05-10T15:32:56;18.00;99.90
11944;DHT22;6031;50.220;10.122;2023-05-10T15:35:22;18.00;99.90
11944;DHT22;6031;50.220;10.122;2023-05-10T15:37:48;17.90;1.00
11944;DHT22;6031;50.220;10.122;2023-05-10T15:40:15;18.00;1.00
11944;DHT22;6031;50.220;10.122;2023-05-10T15:42:40;17.80;99.90
11944;DHT22;6031;50.220;10.122;2023-05-10T15:45:06;17.90;99.90
11944;DHT22;6031;50.220;10.122;2023-05-10T15:47:32;17.80;99.90
11944;DHT22;6031;50.220;10.122;2023-05-10T15:49:58;17.40;99.90
11944;DHT22;6031;50.220;10.122;2023-05-10T15:52:23;17.20;1.00
11944;DHT22;6031;50.220;10.122;2023-05-10T15:54:49;17.10;1.00
11944;DHT22;6031;50.220;10.122;2023-05-10T15:57:15;16.90;1.00
11944;DHT22;6031;50.220;10.122;2023-05-10T15:59:41;16.90;99.90
11944;DHT22;6031;50.220;10.122;2023-05-10T16:02:08;16.90;1.00
11944;DHT22;6031;50.220;10.122;2023-05-10T16:04:35;17.00;1.00